Time;durP1;ratioP1;P1;durP2;ratioP2;P2;SDS_P1;SDS_P2;PMS_P1;PMS_P2;Temp;Humidity;BMP_temperature;BMP_pressure;BME280_temperature;BME280_humidity;BME280_pressure;Samples;Min_cycle;Max_cycle;Signal;HPM_P1;HPM_P2
2024/01/20 00:00:22;;;;;;;756.28;72.93;;;;;;;;;;4753345;29;21438;-88
2024/01/20 00:02:49;;;;;;;718.22;66.80;;;;;;;;;;4752856;29;20058;-85
2024/01/20 00:05:16;;;;;;;782.88;74.70;;;;;;;;;;4748691;29;20050;-85
2024/01/20 00:07:42;;;;;;;789.58;75.32;;;;;;;;;;4747893;29;20058;-85
2024/01/20 00:10:11;;;;;;;819.92;78.50;;;;;;;;;;4749841;29;20042;-85
2024/01/20 00:12:39;;;;;;;788.28;75.45;;;;;;;;;;4745202;29;20046;-85
2024/01/20 00:15:07;;;;;;;811.97;76.90;;;;;;;;;;4747531;29;20909;-85
2024/01/20 00:17:38;;;;;;;848.95;79.35;;;;;;;;;;4750676;29;20153;-85
2024/01/20 00:20:05;;;;;;;792.75;76.63;;;;;;;;;;4747911;29;20053;-85
2024/01/20 00:22:32;;;;;;;872.17;84.32;;;;;;;;;;4745876;29;20049;-85
2024/01/20 00:25:02;;;;;;;870.03;84.88;;;;;;;;;;4739846;29;20041;-85
2024/01/20 00:27:30;;;;;;;901.75;88.53;;;;;;;;;;4735872;29;20149;-85
2024/01/20 00:29:57;;;;;;;869.38;81.28;;;;;;;;;;4735450;29;20038;-85
2024/01/20 00:32:23;;;;;;;917.17;89.85;;;;;;;;;;4734689;29;20137;-85
2024/01/20 00:34:50;;;;;;;936.45;91.85;;;;;;;;;;4727699;29;20046;-85
2024/01/20 00:37:32;;;;;;;942.20;92.60;;;;;;;;;;4727315;29;20045;-85
2024/01/20 00:39:59;;;;;;;908.33;89.22;;;;;;;;;;4737479;29;20156;-85
2024/01/20 00:42:25;;;;;;;905.67;87.13;;;;;;;;;;4736594;29;21031;-85
2024/01/20 00:44:52;;;;;;;916.50;91.13;;;;;;;;;;4732227;29;20101;-85
2024/01/20 00:47:18;;;;;;;911.65;90.28;;;;;;;;;;4737838;29;20884;-87
2024/01/20 00:49:47;;;;;;;918.85;90.35;;;;;;;;;;4729821;29;20584;-84
2024/01/20 00:52:14;;;;;;;910.90;90.38;;;;;;;;;;4740517;29;21156;-84
2024/01/20 00:54:41;;;;;;;915.97;91.05;;;;;;;;;;4732730;29;20046;-84
2024/01/20 00:57:07;;;;;;;967.00;98.40;;;;;;;;;;4730169;29;20049;-85
2024/01/20 00:59:34;;;;;;;946.90;96.70;;;;;;;;;;4738901;29;20206;-85
2024/01/20 01:02:01;;;;;;;928.40;92.93;;;;;;;;;;4727187;29;20053;-84
2024/01/20 01:04:27;;;;;;;901.15;91.55;;;;;;;;;;4737143;29;20406;-84
2024/01/20 01:06:54;;;;;;;919.13;92.22;;;;;;;;;;4732366;29;20152;-84
2024/01/20 01:09:21;;;;;;;941.30;94.82;;;;;;;;;;4738828;29;20044;-86
2024/01/20 01:11:47;;;;;;;890.25;88.47;;;;;;;;;;4731262;29;20045;-87
2024/01/20 01:14:14;;;;;;;1001.53;101.82;;;;;;;;;;4725536;29;20478;-86
2024/01/20 01:16:41;;;;;;;903.75;90.10;;;;;;;;;;4729090;29;20135;-87
2024/01/20 01:19:07;;;;;;;927.67;92.82;;;;;;;;;;4724513;29;20267;-87
2024/01/20 01:21:34;;;;;;;945.95;95.78;;;;;;;;;;4737566;29;20050;-84
2024/01/20 01:24:00;;;;;;;912.92;91.22;;;;;;;;;;4732351;29;21272;-87
2024/01/20 01:26:27;;;;;;;908.55;90.85;;;;;;;;;;4734404;29;20232;-85
2024/01/20 01:28:56;;;;;;;918.25;91.60;;;;;;;;;;4729606;29;20049;-84
2024/01/20 01:31:23;;;;;;;917.17;92.60;;;;;;;;;;4730958;29;20092;-85
2024/01/20 01:33:49;;;;;;;898.45;88.90;;;;;;;;;;4737257;29;20037;-85
2024/01/20 01:36:16;;;;;;;950.42;96.60;;;;;;;;;;4729625;29;20049;-85
2024/01/20 01:38:42;;;;;;;895.08;91.22;;;;;;;;;;4737293;29;21206;-87
2024/01/20 01:41:09;;;;;;;925.03;93.85;;;;;;;;;;4732307;29;20130;-85
2024/01/20 01:43:35;;;;;;;982.80;99.88;;;;;;;;;;4729286;29;20057;-85
2024/01/20 01:46:03;;;;;;;903.67;92.15;;;;;;;;;;4736064;29;20939;-85
2024/01/20 01:48:30;;;;;;;892.75;90.13;;;;;;;;;;4727314;29;20074;-85
2024/01/20 01:50:57;;;;;;;963.38;99.00;;;;;;;;;;4740013;29;20037;-85
2024/01/20 01:53:23;;;;;;;917.28;92.97;;;;;;;;;;4737940;29;21007;-85
2024/01/20 01:55:51;;;;;;;899.95;89.70;;;;;;;;;;4737291;29;20072;-85
2024/01/20 01:58:18;;;;;;;936.47;95.30;;;;;;;;;;4734121;29;20069;-85
2024/01/20 02:00:47;;;;;;;404.90;41.65;;;;;;;;;;4936022;23;20030;-85
2024/01/20 02:03:17;;;;;;;165.55;22.45;;;;;;;;;;4804764;29;20042;-92
2024/01/20 02:05:44;;;;;;;175.50;22.42;;;;;;;;;;4837317;29;20052;-90
2024/01/20 02:08:11;;;;;;;143.25;20.75;;;;;;;;;;4833594;29;20583;-92
2024/01/20 02:10:38;;;;;;;135.00;19.30;;;;;;;;;;4826138;29;20037;-90
2024/01/20 02:13:08;;;;;;;185.27;24.60;;;;;;;;;;4821488;29;20038;-90
2024/01/20 02:15:35;;;;;;;266.48;29.95;;;;;;;;;;4820762;29;20049;-92
2024/01/20 02:18:02;;;;;;;255.35;28.17;;;;;;;;;;4828216;29;20041;-92
2024/01/20 02:20:32;;;;;;;218.38;27.00;;;;;;;;;;4806524;29;20049;-90
2024/01/20 02:22:58;;;;;;;241.70;29.25;;;;;;;;;;4824346;29;20137;-91
2024/01/20 02:25:25;;;;;;;171.85;22.35;;;;;;;;;;4823311;29;20054;-90
2024/01/20 02:27:52;;;;;;;171.18;22.65;;;;;;;;;;4827464;29;20104;-91
2024/01/20 02:30:18;;;;;;;248.85;29.55;;;;;;;;;;4806540;29;20138;-92
2024/01/20 02:32:45;;;;;;;196.02;24.65;;;;;;;;;;4822496;29;20465;-91
2024/01/20 02:35:12;;;;;;;190.55;23.17;;;;;;;;;;4833004;29;20142;-90
2024/01/20 02:37:38;;;;;;;195.70;24.13;;;;;;;;;;4817570;29;20054;-91
2024/01/20 02:40:05;;;;;;;143.30;19.33;;;;;;;;;;4831652;29;20177;-89
2024/01/20 02:42:32;;;;;;;152.73;21.42;;;;;;;;;;4812921;29;20342;-92
2024/01/20 02:44:59;;;;;;;186.75;24.13;;;;;;;;;;4814592;29;20048;-89
2024/01/20 02:47:25;;;;;;;219.00;26.17;;;;;;;;;;4831275;29;20045;-89
2024/01/20 02:49:52;;;;;;;132.23;20.48;;;;;;;;;;4830760;29;20045;-91
2024/01/20 02:52:19;;;;;;;133.50;17.30;;;;;;;;;;4833688;29;20049;-90
2024/01/20 02:54:46;;;;;;;165.82;22.60;;;;;;;;;;4821946;29;20042;-92
2024/01/20 02:57:12;;;;;;;184.27;22.73;;;;;;;;;;4831330;29;20548;-90
2024/01/20 02:59:39;;;;;;;202.18;22.80;;;;;;;;;;4824363;29;20057;-90
2024/01/20 03:02:05;;;;;;;209.95;25.40;;;;;;;;;;4827933;29;20168;-90
2024/01/20 03:04:32;;;;;;;253.52;28.20;;;;;;;;;;4843934;29;20056;-93
2024/01/20 03:06:59;;;;;;;155.85;20.88;;;;;;;;;;4838431;29;20148;-89
2024/01/20 03:09:25;;;;;;;150.07;20.63;;;;;;;;;;4852440;29;20174;-92
2024/01/20 03:11:52;;;;;;;114.32;17.83;;;;;;;;;;4846664;29;20198;-91
2024/01/20 03:14:19;;;;;;;137.68;19.27;;;;;;;;;;4853446;29;20037;-89
2024/01/20 03:16:46;;;;;;;141.25;20.23;;;;;;;;;;4853752;29;20037;-90
2024/01/20 03:19:12;;;;;;;282.95;28.65;;;;;;;;;;4828695;29;20048;-90
2024/01/20 03:21:39;;;;;;;311.83;32.22;;;;;;;;;;4839408;29;20056;-90
2024/01/20 03:24:06;;;;;;;186.10;22.92;;;;;;;;;;4837374;29;20052;-91
2024/01/20 03:26:32;;;;;;;101.22;17.52;;;;;;;;;;4849496;29;20113;-89
2024/01/20 03:28:59;;;;;;;157.55;20.70;;;;;;;;;;4847560;29;20045;-92
2024/01/20 03:31:26;;;;;;;225.80;26.52;;;;;;;;;;4830398;29;20057;-89
2024/01/20 03:33:52;;;;;;;227.60;26.75;;;;;;;;;;4823261;29;20924;-91
2024/01/20 03:36:19;;;;;;;188.70;24.05;;;;;;;;;;4816674;29;20079;-91
2024/01/20 03:38:46;;;;;;;162.38;22.10;;;;;;;;;;4829546;29;20064;-92
2024/01/20 03:41:12;;;;;;;172.40;21.80;;;;;;;;;;4824500;29;20052;-89
2024/01/20 03:43:39;;;;;;;178.20;22.88;;;;;;;;;;4830411;29;20045;-92
2024/01/20 03:46:05;;;;;;;235.52;24.52;;;;;;;;;;4843546;29;20489;-90
2024/01/20 03:48:32;;;;;;;312.83;32.50;;;;;;;;;;4822751;29;20141;-91
2024/01/20 03:50:59;;;;;;;333.40;35.78;;;;;;;;;;4828375;29;20051;-92
2024/01/20 03:53:26;;;;;;;360.08;36.78;;;;;;;;;;4820510;29;20045;-91
2024/01/20 03:55:52;;;;;;;275.88;29.73;;;;;;;;;;4817097;29;20562;-91
2024/01/20 03:58:19;;;;;;;321.80;34.22;;;;;;;;;;4823908;29;20112;-91
2024/01/20 04:00:45;;;;;;;394.83;38.15;;;;;;;;;;4822562;29;20041;-91
2024/01/20 04:03:12;;;;;;;272.40;28.63;;;;;;;;;;4812301;29;20144;-92
2024/01/20 04:05:40;;;;;;;288.83;29.67;;;;;;;;;;4825415;29;20045;-94
2024/01/20 04:08:06;;;;;;;335.50;30.58;;;;;;;;;;4826454;29;20471;-93
2024/01/20 04:10:33;;;;;;;389.33;37.50;;;;;;;;;;4800189;29;20490;-91
2024/01/20 04:13:00;;;;;;;490.30;48.13;;;;;;;;;;4802430;29;20052;-91
2024/01/20 04:15:27;;;;;;;470.02;44.15;;;;;;;;;;4787746;29;20172;-91
2024/01/20 04:17:53;;;;;;;386.25;36.67;;;;;;;;;;4817309;29;20053;-91
2024/01/20 04:20:23;;;;;;;483.85;46.47;;;;;;;;;;4816742;29;20221;-91
2024/01/20 04:22:50;;;;;;;544.03;52.92;;;;;;;;;;4780757;29;20064;-91
2024/01/20 04:25:20;;;;;;;506.77;48.00;;;;;;;;;;4807341;29;20121;-90
2024/01/20 04:27:46;;;;;;;524.45;50.15;;;;;;;;;;4800267;29;20048;-91
2024/01/20 04:30:13;;;;;;;554.78;53.70;;;;;;;;;;4793686;29;20037;-91
2024/01/20 04:32:39;;;;;;;465.02;43.25;;;;;;;;;;4806666;29;20046;-90
2024/01/20 04:35:07;;;;;;;443.67;42.50;;;;;;;;;;4801122;29;20049;-92
2024/01/20 04:37:33;;;;;;;466.90;44.22;;;;;;;;;;4802215;29;20814;-90
2024/01/20 04:40:00;;;;;;;413.00;39.75;;;;;;;;;;4801336;29;20037;-90
2024/01/20 04:42:27;;;;;;;449.63;41.80;;;;;;;;;;4812388;29;20590;-91
2024/01/20 04:44:54;;;;;;;468.77;45.63;;;;;;;;;;4816879;29;20930;-91
2024/01/20 04:47:20;;;;;;;392.30;34.50;;;;;;;;;;4793823;29;20894;-90
2024/01/20 04:49:49;;;;;;;482.23;45.90;;;;;;;;;;4821191;29;20045;-90
2024/01/20 04:52:16;;;;;;;301.15;30.50;;;;;;;;;;4818867;29;20049;-91
2024/01/20 04:54:42;;;;;;;208.57;23.45;;;;;;;;;;4836034;29;20061;-91
2024/01/20 04:57:09;;;;;;;223.18;24.00;;;;;;;;;;4832562;29;20629;-91
2024/01/20 04:59:36;;;;;;;224.77;23.40;;;;;;;;;;4824067;29;20606;-89
2024/01/20 05:02:02;;;;;;;245.95;26.17;;;;;;;;;;4831747;29;20843;-88
2024/01/20 05:04:29;;;;;;;313.73;28.63;;;;;;;;;;4823143;29;20156;-89
2024/01/20 05:06:56;;;;;;;366.98;36.45;;;;;;;;;;4802854;29;20223;-91
2024/01/20 05:09:23;;;;;;;240.68;24.55;;;;;;;;;;4822008;29;20041;-90
2024/01/20 05:11:49;;;;;;;294.83;30.50;;;;;;;;;;4829582;29;20750;-91
2024/01/20 05:14:16;;;;;;;280.58;28.00;;;;;;;;;;4828017;29;20057;-91
2024/01/20 05:16:43;;;;;;;295.80;28.75;;;;;;;;;;4823157;29;20049;-88
2024/01/20 05:19:10;;;;;;;378.30;33.92;;;;;;;;;;4810781;29;20211;-91
2024/01/20 05:21:38;;;;;;;406.52;37.28;;;;;;;;;;4813083;29;20576;-91
2024/01/20 05:24:05;;;;;;;312.27;30.35;;;;;;;;;;4806927;29;20041;-90
2024/01/20 05:26:31;;;;;;;452.00;42.60;;;;;;;;;;4795030;29;20045;-93
2024/01/20 05:28:59;;;;;;;371.63;31.55;;;;;;;;;;4817201;29;20458;-90
2024/01/20 05:31:31;;;;;;;408.13;38.63;;;;;;;;;;4812558;29;20046;-92
2024/01/20 05:34:01;;;;;;;395.73;37.47;;;;;;;;;;4795320;29;20061;-91
2024/01/20 05:36:28;;;;;;;465.92;43.28;;;;;;;;;;4818758;29;20048;-91
2024/01/20 05:38:55;;;;;;;554.55;53.13;;;;;;;;;;4788637;29;20540;-91
2024/01/20 05:41:21;;;;;;;486.67;44.50;;;;;;;;;;4791364;29;20045;-91
2024/01/20 05:43:48;;;;;;;503.75;47.03;;;;;;;;;;4802559;29;20319;-90
2024/01/20 05:46:18;;;;;;;560.75;52.55;;;;;;;;;;4801565;29;20033;-91
2024/01/20 05:48:44;;;;;;;376.83;35.25;;;;;;;;;;4793607;29;20045;-91
2024/01/20 05:51:11;;;;;;;383.80;35.15;;;;;;;;;;4813675;29;20144;-90
2024/01/20 05:53:39;;;;;;;438.65;40.42;;;;;;;;;;4826083;29;20120;-91
2024/01/20 05:56:06;;;;;;;491.52;45.22;;;;;;;;;;4771824;29;20594;-90
2024/01/20 05:58:51;;;;;;;;;;;;;;;;;;;;;
2024/01/20 06:02:09;;;;;;;;;;;;;;;;;;;;;
2024/01/20 06:05:15;;;;;;;;;;;;;;;;;;;;;
2024/01/20 06:08:26;;;;;;;;;;;;;;;;;;;;;
2024/01/20 06:11:33;;;;;;;;;;;;;;;;;;;;;
2024/01/20 06:14:43;;;;;;;492.70;43.92;;;;;;;;;;4590549;30;20061;-90
2024/01/20 06:18:03;;;;;;;;;;;;;;;;;;;;;
2024/01/20 06:21:16;;;;;;;;;;;;;;;;;;;;;
2024/01/20 06:24:52;;;;;;;;;;;;;;;;;;;;;
2024/01/20 06:28:25;;;;;;;;;;;;;;;;;;;;;
2024/01/20 06:31:31;;;;;;;454.95;40.22;;;;;;;;;;4622407;30;20922;-90
2024/01/20 06:35:12;;;;;;;535.88;47.80;;;;;;;;;;4562810;30;20060;-92
2024/01/20 06:38:00;;;;;;;;;;;;;;;;;;;;;
2024/01/20 06:44:46;;;;;;;;;;;;;;;;;;;;;
2024/01/20 06:48:15;;;;;;;559.70;50.92;;;;;;;;;;4681255;30;20996;-90
2024/01/20 06:51:42;;;;;;;1101.05;113.07;;;;;;;;;;4588188;30;20108;-91
2024/01/20 06:58:43;;;;;;;693.45;66.28;;;;;;;;;;4640187;30;20193;-90
2024/01/20 07:02:00;;;;;;;;;;;;;;;;;;;;;
2024/01/20 07:04:52;;;;;;;719.58;68.25;;;;;;;;;;4577977;30;20046;-89
2024/01/20 07:08:28;;;;;;;579.67;54.65;;;;;;;;;;4613469;30;20080;-90
2024/01/20 07:12:04;;;;;;;;;;;;;;;;;;;;;
2024/01/20 07:15:11;;;;;;;457.48;38.80;;;;;;;;;;4661087;30;20054;-89
2024/01/20 07:18:23;;;;;;;723.58;66.47;;;;;;;;;;4648738;30;20061;-91
2024/01/20 07:21:28;;;;;;;361.27;32.58;;;;;;;;;;4598674;30;20059;-91
2024/01/20 07:25:00;;;;;;;;;;;;;;;;;;;;;
2024/01/20 07:28:23;;;;;;;199.07;24.08;;;;;;;;;;4681146;30;20053;-92
2024/01/20 07:35:52;;;;;;;;;;;;;;;;;;;;;
2024/01/20 07:39:27;;;;;;;184.77;21.10;;;;;;;;;;4658653;30;20046;-89
2024/01/20 07:42:00;;;;;;;180.82;21.35;;;;;;;;;;4702050;29;20054;-89
2024/01/20 07:44:34;;;;;;;119.43;15.63;;;;;;;;;;4782688;29;20410;-91
2024/01/20 07:47:35;;;;;;;336.80;30.95;;;;;;;;;;4767380;29;20047;-91
2024/01/20 07:50:24;;;;;;;186.65;19.45;;;;;;;;;;4779611;29;20054;-89
2024/01/20 07:53:30;;;;;;;;;;;;;;;;;;;;;
2024/01/20 07:56:13;;;;;;;;;;;;;;;;;;;;;
2024/01/20 07:59:23;;;;;;;;;;;;;;;;;;;;;
2024/01/20 08:02:33;;;;;;;43.33;11.38;;;;;;;;;;4745384;30;20052;-87
2024/01/20 08:05:31;;;;;;;250.95;23.60;;;;;;;;;;4759709;29;20101;-87
2024/01/20 08:08:11;;;;;;;50.13;12.48;;;;;;;;;;4755707;29;20136;-88
2024/01/20 08:10:50;;;;;;;;;;;;;;;;;;;;;
2024/01/20 08:13:55;;;;;;;123.90;14.85;;;;;;;;;;4777181;29;20141;-87
2024/01/20 08:17:08;;;;;;;101.18;13.75;;;;;;;;;;4699493;30;20064;-88
2024/01/20 08:19:45;;;;;;;60.78;11.27;;;;;;;;;;4750686;29;20101;-86
2024/01/20 08:22:27;;;;;;;;;;;;;;;;;;;;;
2024/01/20 08:25:26;;;;;;;;;;;;;;;;;;;;;
2024/01/20 08:28:24;;;;;;;95.60;14.55;;;;;;;;;;4856147;29;20049;-88
2024/01/20 08:31:14;;;;;;;;;;;;;;;;;;;;;
2024/01/20 08:34:05;;;;;;;;;;;;;;;;;;;;;
2024/01/20 08:37:19;;;;;;;623.10;58.28;;;;;;;;;;4784033;29;20238;-91
2024/01/20 08:39:51;;;;;;;150.98;17.40;;;;;;;;;;4832908;29;20105;-87
2024/01/20 08:42:38;;;;;;;58.17;10.45;;;;;;;;;;4830519;29;20037;-88
2024/01/20 08:45:11;;;;;;;42.35;10.88;;;;;;;;;;4833863;29;20041;-87
2024/01/20 08:47:41;;;;;;;109.20;14.90;;;;;;;;;;4835663;29;20385;-87
2024/01/20 08:50:13;;;;;;;139.15;17.60;;;;;;;;;;4834186;29;20512;-88
2024/01/20 08:52:49;;;;;;;95.57;15.45;;;;;;;;;;4855401;29;20041;-90
2024/01/20 08:55:30;;;;;;;33.53;12.30;;;;;;;;;;4831877;29;20061;-89
2024/01/20 08:58:26;;;;;;;108.38;17.23;;;;;;;;;;4782345;29;20103;-89
2024/01/20 09:01:33;;;;;;;;;;;;;;;;;;;;;
2024/01/20 09:04:22;;;;;;;;;;;;;;;;;;;;;
2024/01/20 09:07:30;;;;;;;82.28;14.75;;;;;;;;;;4795009;29;20511;-89
2024/01/20 09:10:39;;;;;;;;;;;;;;;;;;;;;
2024/01/20 09:13:40;;;;;;;;;;;;;;;;;;;;;
2024/01/20 09:16:46;;;;;;;250.63;23.85;;;;;;;;;;4739844;30;20294;-89
2024/01/20 09:20:19;;;;;;;;;;;;;;;;;;;;;
2024/01/20 09:23:35;;;;;;;73.68;13.82;;;;;;;;;;4733164;30;20090;-89
2024/01/20 09:27:14;;;;;;;207.07;20.90;;;;;;;;;;4680388;30;20053;-88
2024/01/20 09:30:36;;;;;;;;;;;;;;;;;;;;;
2024/01/20 09:37:22;;;;;;;;;;;;;;;;;;;;;
2024/01/20 09:41:10;;;;;;;;;;;;;;;;;;;;;
2024/01/20 09:48:39;;;;;;;;;;;;;;;;;;;;;
2024/01/20 09:59:40;;;;;;;492.50;50.45;;;;;;;;;;4631720;30;20045;-93
2024/01/20 10:07:21;;;;;;;224.77;24.90;;;;;;;;;;4733299;30;20077;-91
2024/01/20 10:14:06;;;;;;;846.13;87.13;;;;;;;;;;4687102;30;20686;-86
2024/01/20 10:16:42;;;;;;;947.22;96.95;;;;;;;;;;4639776;30;20051;-84
2024/01/20 10:19:14;;;;;;;872.10;90.00;;;;;;;;;;4671727;29;20155;-83
2024/01/20 10:21:43;;;;;;;889.92;91.70;;;;;;;;;;4641364;30;20083;-82
2024/01/20 10:24:11;;;;;;;838.33;84.32;;;;;;;;;;4664452;29;20568;-83
2024/01/20 10:26:40;;;;;;;863.83;89.65;;;;;;;;;;4667671;29;20245;-86
2024/01/20 10:29:10;;;;;;;879.60;90.07;;;;;;;;;;4659305;30;20977;-84
2024/01/20 10:31:37;;;;;;;869.58;90.75;;;;;;;;;;4663285;29;20052;-83
2024/01/20 10:34:07;;;;;;;861.13;88.03;;;;;;;;;;4663336;29;20882;-83
2024/01/20 10:36:34;;;;;;;871.88;90.97;;;;;;;;;;4645232;30;20128;-82
2024/01/20 10:39:02;;;;;;;879.08;91.47;;;;;;;;;;4703331;29;20374;-83
2024/01/20 10:41:33;;;;;;;869.30;91.78;;;;;;;;;;4751144;29;20045;-84
2024/01/20 10:44:04;;;;;;;851.28;88.75;;;;;;;;;;4761313;29;20048;-83
2024/01/20 10:46:36;;;;;;;901.13;93.90;;;;;;;;;;4757719;29;20033;-83
2024/01/20 10:49:07;;;;;;;837.95;86.15;;;;;;;;;;4755226;29;20049;-84
2024/01/20 10:51:41;;;;;;;823.65;83.63;;;;;;;;;;4775734;29;20040;-88
2024/01/20 10:54:14;;;;;;;979.15;105.78;;;;;;;;;;4768733;29;20135;-87
2024/01/20 10:57:11;;;;;;;381.45;39.13;;;;;;;;;;4774598;29;20033;-88
2024/01/20 10:59:56;;;;;;;672.90;73.03;;;;;;;;;;4802020;29;20041;-85
2024/01/20 11:02:34;;;;;;;370.27;38.45;;;;;;;;;;4834196;29;20049;-86
2024/01/20 11:05:20;;;;;;;835.97;86.22;;;;;;;;;;4766816;29;20048;-87
2024/01/20 11:08:19;;;;;;;777.88;78.50;;;;;;;;;;4780154;29;20045;-89
2024/01/20 11:10:54;;;;;;;809.35;81.47;;;;;;;;;;4745528;29;20048;-90
2024/01/20 11:13:27;;;;;;;816.47;84.88;;;;;;;;;;4746139;29;20050;-89
2024/01/20 11:15:57;;;;;;;859.67;91.93;;;;;;;;;;4766459;29;20117;-89
2024/01/20 11:18:27;;;;;;;865.30;88.38;;;;;;;;;;4766436;29;20783;-87
2024/01/20 11:21:01;;;;;;;905.20;93.38;;;;;;;;;;4750531;29;20091;-89
2024/01/20 11:23:29;;;;;;;793.30;81.35;;;;;;;;;;4761885;29;20049;-89
2024/01/20 11:26:09;;;;;;;829.63;84.72;;;;;;;;;;4769883;29;21002;-87
2024/01/20 11:28:42;;;;;;;864.33;89.35;;;;;;;;;;4739292;29;20646;-87
2024/01/20 11:31:39;;;;;;;856.67;88.25;;;;;;;;;;4735367;29;20052;-88
2024/01/20 11:34:06;;;;;;;836.13;86.40;;;;;;;;;;4763379;29;20045;-89
2024/01/20 11:36:48;;;;;;;859.05;90.10;;;;;;;;;;4732508;29;20045;-88
2024/01/20 11:39:25;;;;;;;817.90;83.68;;;;;;;;;;4765003;29;21106;-87
2024/01/20 11:42:05;;;;;;;837.97;87.60;;;;;;;;;;4744283;29;20954;-87
2024/01/20 11:44:58;;;;;;;856.90;86.53;;;;;;;;;;4754395;29;20048;-87
2024/01/20 11:47:29;;;;;;;796.45;81.57;;;;;;;;;;4760847;29;20248;-88
2024/01/20 11:49:58;;;;;;;865.35;89.20;;;;;;;;;;4748568;29;20731;-88
2024/01/20 11:52:28;;;;;;;817.17;82.38;;;;;;;;;;4761329;29;20048;-88
2024/01/20 11:54:58;;;;;;;900.47;94.30;;;;;;;;;;4761454;29;20052;-88
2024/01/20 11:57:29;;;;;;;817.95;84.03;;;;;;;;;;4762047;29;20594;-87
2024/01/20 12:00:11;;;;;;;836.25;86.97;;;;;;;;;;4763875;29;20166;-89
2024/01/20 12:02:47;;;;;;;592.95;60.70;;;;;;;;;;4760800;29;20143;-88
2024/01/20 12:05:23;;;;;;;909.20;93.53;;;;;;;;;;4755659;29;20255;-88
2024/01/20 12:08:14;;;;;;;913.70;95.45;;;;;;;;;;4728824;29;20073;-88
2024/01/20 12:10:42;;;;;;;863.13;88.80;;;;;;;;;;4755533;29;20188;-88
2024/01/20 12:13:14;;;;;;;784.30;82.22;;;;;;;;;;4767877;29;20129;-92
2024/01/20 12:15:46;;;;;;;717.10;71.43;;;;;;;;;;4759093;29;20041;-87
2024/01/20 12:18:32;;;;;;;200.60;23.08;;;;;;;;;;4802525;29;20037;-87
2024/01/20 12:21:21;;;;;;;1001.45;105.70;;;;;;;;;;4731543;29;20060;-82
2024/01/20 12:24:00;;;;;;;878.38;89.82;;;;;;;;;;4726117;29;20041;-80
2024/01/20 12:26:50;;;;;;;918.75;95.03;;;;;;;;;;4756851;29;20044;-80
2024/01/20 12:29:21;;;;;;;936.13;97.95;;;;;;;;;;4754480;29;20233;-81
2024/01/20 12:31:49;;;;;;;916.55;95.05;;;;;;;;;;4740212;29;20041;-80
2024/01/20 12:34:24;;;;;;;897.97;90.95;;;;;;;;;;4740645;29;20041;-81
2024/01/20 12:37:01;;;;;;;916.58;95.00;;;;;;;;;;4758981;29;20060;-81
2024/01/20 12:39:44;;;;;;;949.63;100.20;;;;;;;;;;4736974;29;20052;-79
2024/01/20 12:42:16;;;;;;;891.90;92.60;;;;;;;;;;4737054;29;20544;-86
2024/01/20 12:44:53;;;;;;;903.05;93.90;;;;;;;;;;4749653;29;20041;-80
2024/01/20 12:47:33;;;;;;;921.55;95.40;;;;;;;;;;4757370;29;20052;-80
2024/01/20 12:50:05;;;;;;;888.83;92.22;;;;;;;;;;4751760;29;20927;-80
2024/01/20 12:52:35;;;;;;;877.17;91.78;;;;;;;;;;4754999;29;20045;-79
2024/01/20 12:55:01;;;;;;;930.42;95.35;;;;;;;;;;4738643;29;21064;-76
2024/01/20 12:57:28;;;;;;;912.85;95.85;;;;;;;;;;4752939;29;20340;-85
2024/01/20 12:59:55;;;;;;;893.78;91.43;;;;;;;;;;4740950;29;20872;-77
2024/01/20 13:02:22;;;;;;;890.83;90.50;;;;;;;;;;4755736;29;20049;-77
2024/01/20 13:04:49;;;;;;;891.95;93.22;;;;;;;;;;4751218;29;20793;-78
2024/01/20 13:07:17;;;;;;;922.95;96.47;;;;;;;;;;4739221;29;20049;-79
2024/01/20 13:09:45;;;;;;;888.67;92.60;;;;;;;;;;4749802;29;20206;-77
2024/01/20 13:12:12;;;;;;;896.78;92.95;;;;;;;;;;4754593;29;20041;-79
2024/01/20 13:14:39;;;;;;;889.20;92.05;;;;;;;;;;4747231;29;20152;-79
2024/01/20 13:17:06;;;;;;;894.47;92.15;;;;;;;;;;4735818;29;21210;-77
2024/01/20 13:19:33;;;;;;;907.13;95.60;;;;;;;;;;4750220;29;20305;-78
2024/01/20 13:21:59;;;;;;;892.08;93.00;;;;;;;;;;4750050;29;20045;-80
2024/01/20 13:24:26;;;;;;;922.00;96.20;;;;;;;;;;4757402;29;20048;-81
2024/01/20 13:26:52;;;;;;;884.35;93.85;;;;;;;;;;4738027;29;20037;-82
2024/01/20 13:29:20;;;;;;;889.70;94.00;;;;;;;;;;4757111;29;21001;-80
2024/01/20 13:31:46;;;;;;;883.28;93.55;;;;;;;;;;4747759;29;20041;-86
2024/01/20 13:34:13;;;;;;;812.63;84.25;;;;;;;;;;4754481;29;20037;-82
2024/01/20 13:36:40;;;;;;;894.67;94.82;;;;;;;;;;4753524;29;20042;-81
2024/01/20 13:39:08;;;;;;;890.88;93.88;;;;;;;;;;4736523;29;20045;-79
2024/01/20 13:41:34;;;;;;;898.60;95.55;;;;;;;;;;4756373;29;20041;-78
2024/01/20 13:44:01;;;;;;;886.97;95.57;;;;;;;;;;4748886;29;20045;-79
2024/01/20 13:46:28;;;;;;;933.00;100.57;;;;;;;;;;4756868;29;20941;-78
2024/01/20 13:48:55;;;;;;;913.33;97.57;;;;;;;;;;4748490;29;21129;-79
2024/01/20 13:51:22;;;;;;;898.13;96.40;;;;;;;;;;4753348;29;21326;-79
2024/01/20 13:53:49;;;;;;;918.40;99.25;;;;;;;;;;4758515;29;20148;-80
2024/01/20 13:56:15;;;;;;;905.20;97.47;;;;;;;;;;4752032;29;20106;-80
2024/01/20 13:58:42;;;;;;;879.35;93.97;;;;;;;;;;4755530;29;20923;-79
2024/01/20 14:01:09;;;;;;;893.22;92.65;;;;;;;;;;4748441;29;20302;-78
2024/01/20 14:03:36;;;;;;;921.08;100.68;;;;;;;;;;4754619;29;21009;-77
2024/01/20 14:06:03;;;;;;;858.60;93.13;;;;;;;;;;4752806;29;20111;-80
2024/01/20 14:08:30;;;;;;;883.83;98.32;;;;;;;;;;4753762;29;20052;-80
2024/01/20 14:10:57;;;;;;;866.67;96.15;;;;;;;;;;4757043;29;20041;-78
2024/01/20 14:13:23;;;;;;;866.85;96.88;;;;;;;;;;4751139;29;20377;-79
2024/01/20 14:15:50;;;;;;;913.75;103.15;;;;;;;;;;4754120;29;20201;-78
2024/01/20 14:18:17;;;;;;;891.72;99.57;;;;;;;;;;4752904;29;20920;-78
2024/01/20 14:20:46;;;;;;;861.53;97.57;;;;;;;;;;4753113;29;20817;-79
2024/01/20 14:23:13;;;;;;;854.72;92.75;;;;;;;;;;4757236;29;20109;-80
2024/01/20 14:25:40;;;;;;;901.63;99.82;;;;;;;;;;4750166;29;20045;-80
2024/01/20 14:28:08;;;;;;;1079.55;120.45;;;;;;;;;;4748592;29;21017;-81
2024/01/20 14:30:34;;;;;;;909.50;101.13;;;;;;;;;;4738987;29;20974;-80
2024/01/20 14:33:01;;;;;;;875.30;93.28;;;;;;;;;;4756806;29;20045;-78
2024/01/20 14:35:28;;;;;;;900.92;101.18;;;;;;;;;;4751238;29;21022;-77
2024/01/20 14:37:55;;;;;;;908.20;100.22;;;;;;;;;;4749416;29;20041;-78
2024/01/20 14:40:21;;;;;;;917.17;103.90;;;;;;;;;;4741092;29;21244;-78
2024/01/20 14:42:50;;;;;;;884.20;97.05;;;;;;;;;;4748711;29;21049;-81
2024/01/20 14:45:18;;;;;;;866.80;97.82;;;;;;;;;;4751350;29;20048;-78
2024/01/20 14:47:44;;;;;;;903.53;98.32;;;;;;;;;;4747938;29;20102;-78
2024/01/20 14:50:12;;;;;;;877.80;97.72;;;;;;;;;;4750048;29;20140;-78
2024/01/20 14:52:39;;;;;;;879.33;99.20;;;;;;;;;;4735365;29;20037;-81
2024/01/20 14:55:06;;;;;;;896.28;101.88;;;;;;;;;;4734766;29;20954;-81
2024/01/20 14:57:32;;;;;;;882.97;101.32;;;;;;;;;;4756238;29;20340;-78
2024/01/20 15:00:03;;;;;;;870.50;97.07;;;;;;;;;;4748168;29;20041;-78
2024/01/20 15:02:30;;;;;;;879.47;97.45;;;;;;;;;;4754701;29;20091;-78
2024/01/20 15:04:56;;;;;;;911.35;103.63;;;;;;;;;;4745844;29;20896;-80
2024/01/20 15:07:24;;;;;;;887.08;97.22;;;;;;;;;;4752101;29;20055;-81
2024/01/20 15:09:51;;;;;;;889.22;100.60;;;;;;;;;;4754952;29;20045;-79
2024/01/20 15:12:19;;;;;;;879.42;94.95;;;;;;;;;;4750860;29;20049;-78
2024/01/20 15:14:46;;;;;;;877.28;95.82;;;;;;;;;;4757153;29;20054;-78
2024/01/20 15:17:13;;;;;;;771.65;87.75;;;;;;;;;;4752498;29;20835;-78
2024/01/20 15:19:40;;;;;;;924.92;105.35;;;;;;;;;;4750874;29;20068;-79
2024/01/20 15:22:08;;;;;;;895.35;100.03;;;;;;;;;;4753833;29;20129;-79
2024/01/20 15:24:35;;;;;;;1035.40;118.00;;;;;;;;;;4731197;29;20057;-79
2024/01/20 15:27:02;;;;;;;867.28;94.82;;;;;;;;;;4751847;29;20557;-79
2024/01/20 15:29:32;;;;;;;903.83;103.63;;;;;;;;;;4746106;29;20049;-79
2024/01/20 15:32:01;;;;;;;876.67;98.60;;;;;;;;;;4755096;29;20045;-80
2024/01/20 15:34:28;;;;;;;899.97;101.45;;;;;;;;;;4751575;29;20053;-81
2024/01/20 15:36:55;;;;;;;876.42;99.95;;;;;;;;;;4752187;29;20236;-80
2024/01/20 15:39:21;;;;;;;880.58;100.00;;;;;;;;;;4755174;29;20053;-79
2024/01/20 15:41:48;;;;;;;894.25;100.43;;;;;;;;;;4743345;29;20080;-80
2024/01/20 15:44:15;;;;;;;879.13;99.90;;;;;;;;;;4756571;29;20126;-80
2024/01/20 15:46:42;;;;;;;866.28;96.22;;;;;;;;;;4747288;29;20340;-79
2024/01/20 15:49:11;;;;;;;864.28;97.22;;;;;;;;;;4755030;29;20060;-80
2024/01/20 15:51:38;;;;;;;880.65;99.35;;;;;;;;;;4750153;29;20729;-80
2024/01/20 15:54:05;;;;;;;860.47;95.70;;;;;;;;;;4751102;29;20054;-80
2024/01/20 15:56:39;;;;;;;874.92;101.40;;;;;;;;;;4755710;29;21106;-80
2024/01/20 15:59:06;;;;;;;854.95;95.90;;;;;;;;;;4747178;29;20049;-80
2024/01/20 16:01:32;;;;;;;936.10;104.65;;;;;;;;;;4734482;29;21064;-80
2024/01/20 16:04:02;;;;;;;878.20;92.57;;;;;;;;;;4745083;29;20060;-80